createdAt,value
2022-08-18T00:01:16.032Z,18.47
2022-08-18T00:03:56.899Z,18.39
2022-08-18T00:06:29.496Z,18.27
2022-08-18T00:08:59.982Z,18.45
2022-08-18T00:11:41.551Z,18.49
2022-08-18T00:14:21.276Z,18.50
2022-08-18T00:16:54.085Z,18.52
2022-08-18T00:19:45.366Z,18.49
2022-08-18T00:22:14.536Z,18.42
2022-08-18T00:24:48.654Z,18.41
2022-08-18T00:27:19.516Z,18.34
2022-08-18T00:29:49.870Z,18.38
2022-08-18T00:32:23.824Z,18.43
2022-08-18T00:34:51.938Z,18.45
2022-08-18T00:37:19.577Z,18.49
2022-08-18T00:39:47.840Z,18.48
2022-08-18T00:42:27.383Z,18.42
2022-08-18T00:45:01.913Z,18.45
2022-08-18T00:47:33.046Z,18.48
2022-08-18T00:50:14.818Z,18.48
2022-08-18T00:52:50.308Z,18.46
2022-08-18T00:55:19.266Z,18.43
2022-08-18T00:57:50.939Z,18.42
2022-08-18T01:00:19.048Z,18.44
2022-08-18T01:02:54.701Z,18.49
2022-08-18T01:05:27.367Z,18.55
2022-08-18T01:07:55.251Z,18.57
2022-08-18T01:10:23.930Z,18.64
2022-08-18T01:12:54.172Z,18.70
2022-08-18T01:15:28.015Z,18.72
2022-08-18T01:18:03.332Z,18.80
2022-08-18T01:20:35.908Z,18.85
2022-08-18T01:23:12.489Z,18.93
2022-08-18T01:25:41.793Z,18.94
2022-08-18T01:28:09.409Z,18.95
2022-08-18T01:30:48.370Z,18.96
2022-08-18T01:33:17.247Z,18.94
2022-08-18T01:35:48.953Z,18.97
2022-08-18T01:38:18.766Z,18.93
2022-08-18T01:41:24.148Z,18.92
2022-08-18T01:43:36.569Z,18.93
2022-08-18T01:46:05.328Z,18.93
2022-08-18T01:48:35.039Z,18.89
2022-08-18T01:51:04.804Z,18.92
2022-08-18T01:53:34.553Z,18.89
2022-08-18T01:56:03.002Z,18.87
2022-08-18T01:58:31.894Z,18.81
2022-08-18T02:01:00.974Z,18.81
2022-08-18T02:03:33.613Z,18.90
2022-08-18T02:06:03.230Z,18.92
2022-08-18T02:08:31.332Z,18.86
2022-08-18T02:11:03.034Z,18.79
2022-08-18T02:13:31.402Z,18.82
2022-08-18T02:15:59.078Z,18.82
2022-08-18T02:18:47.876Z,18.85
2022-08-18T02:21:19.917Z,18.74
2022-08-18T02:23:53.448Z,18.65
2022-08-18T02:26:23.867Z,18.67
2022-08-18T02:28:52.364Z,18.75
2022-08-18T02:31:23.764Z,18.76
2022-08-18T02:33:52.301Z,18.74
2022-08-18T02:36:21.477Z,18.63
2022-08-18T02:38:58.757Z,18.67
2022-08-18T02:41:30.165Z,18.74
2022-08-18T02:43:58.472Z,18.75
2022-08-18T02:46:29.894Z,18.80
2022-08-18T02:49:00.257Z,18.75
2022-08-18T02:51:28.255Z,18.77
2022-08-18T02:53:56.642Z,18.77
2022-08-18T02:56:41.575Z,18.78
2022-08-18T02:59:14.378Z,18.78
2022-08-18T03:01:45.748Z,18.72
2022-08-18T03:04:16.480Z,18.60
2022-08-18T03:06:45.337Z,18.59
2022-08-18T03:09:15.714Z,18.65
2022-08-18T03:11:46.215Z,18.71
2022-08-18T03:14:16.050Z,18.75
2022-08-18T03:16:52.820Z,18.77
2022-08-18T03:19:23.775Z,18.77
2022-08-18T03:21:51.556Z,18.63
2022-08-18T03:31:08.330Z,18.52
2022-08-18T03:33:36.634Z,18.57
2022-08-18T03:36:05.362Z,18.60
2022-08-18T03:41:57.309Z,18.75
2022-08-18T03:44:09.845Z,18.83
2022-08-18T03:46:41.257Z,18.89
2022-08-18T03:49:08.927Z,18.92
2022-08-18T03:51:37.921Z,18.97
2022-08-18T03:54:06.357Z,19.05
2022-08-18T03:56:38.015Z,19.09
2022-08-18T03:59:08.390Z,19.13
2022-08-18T04:01:40.353Z,19.21
2022-08-18T04:04:11.386Z,19.24
2022-08-18T04:06:42.939Z,19.29
2022-08-18T04:09:15.879Z,19.36
2022-08-18T04:11:45.021Z,19.42
2022-08-18T04:14:16.958Z,19.49
2022-08-18T04:16:47.138Z,19.52
2022-08-18T04:19:26.903Z,19.61
2022-08-18T04:21:57.244Z,19.69
2022-08-18T04:24:28.071Z,19.75
2022-08-18T04:26:59.895Z,19.81
2022-08-18T04:29:28.186Z,19.87
2022-08-18T04:32:00.833Z,19.96
2022-08-18T04:34:28.808Z,20.02
2022-08-18T04:36:56.680Z,20.05
2022-08-18T04:39:24.581Z,20.13
2022-08-18T04:41:52.488Z,20.20
2022-08-18T04:44:21.038Z,20.27
2022-08-18T04:46:51.077Z,20.33
2022-08-18T04:49:22.574Z,20.40
2022-08-18T04:52:36.334Z,20.45
2022-08-18T04:54:40.500Z,20.46
2022-08-18T04:57:10.858Z,20.55
2022-08-18T04:59:40.619Z,20.64
2022-08-18T05:02:14.105Z,20.73
2022-08-18T05:04:44.738Z,20.79
2022-08-18T05:07:12.869Z,20.75
2022-08-18T05:09:41.613Z,20.76
2022-08-18T05:12:12.198Z,20.77
2022-08-18T05:14:40.243Z,20.86
2022-08-18T05:17:08.033Z,21.02
2022-08-18T05:19:35.943Z,21.08
2022-08-18T05:22:12.171Z,21.01
2022-08-18T05:24:42.200Z,21.12
2022-08-18T05:27:10.075Z,21.18
2022-08-18T05:29:45.910Z,21.27
2022-08-18T05:32:37.077Z,21.37
2022-08-18T05:35:04.528Z,21.48
2022-08-18T05:37:39.706Z,21.54
2022-08-18T05:40:11.257Z,21.59
2022-08-18T05:42:41.082Z,21.62
2022-08-18T05:45:11.556Z,21.53
2022-08-18T05:47:39.377Z,21.52
2022-08-18T05:50:11.194Z,21.57
2022-08-18T05:52:51.432Z,21.51
2022-08-18T05:55:25.207Z,21.49
2022-08-18T05:57:56.860Z,21.62
2022-08-18T06:00:26.142Z,21.72
2022-08-18T06:03:00.447Z,21.80
2022-08-18T06:05:31.602Z,21.91
2022-08-18T06:08:04.896Z,22.00
2022-08-18T06:10:33.534Z,22.09
2022-08-18T06:13:02.685Z,22.25
2022-08-18T06:15:42.444Z,22.40
2022-08-18T06:18:33.512Z,22.47
2022-08-18T06:21:17.680Z,22.57
2022-08-18T06:23:56.162Z,22.69
2022-08-18T06:26:32.604Z,22.81
2022-08-18T06:29:12.922Z,22.85
2022-08-18T06:31:48.669Z,22.87
2022-08-18T06:34:25.712Z,23.06
2022-08-18T06:36:58.725Z,23.13
2022-08-18T06:39:34.562Z,23.23
2022-08-18T06:42:02.843Z,23.31
2022-08-18T06:44:35.982Z,23.31
2022-08-18T06:47:13.771Z,23.40
2022-08-18T06:49:45.356Z,23.44
2022-08-18T06:52:26.417Z,23.53
2022-08-18T06:54:57.263Z,23.57
2022-08-18T06:57:29.678Z,23.64
2022-08-18T07:00:00.016Z,23.73
2022-08-18T07:02:42.195Z,23.81
2022-08-18T07:05:19.217Z,23.87
2022-08-18T07:08:10.062Z,23.95
2022-08-18T07:10:42.716Z,24.02
2022-08-18T07:13:24.978Z,24.07
2022-08-18T07:15:53.740Z,24.20
2022-08-18T07:18:25.489Z,24.33
2022-08-18T07:20:55.587Z,24.41
2022-08-18T07:23:30.974Z,24.35
2022-08-18T07:26:07.783Z,24.52
2022-08-18T07:28:40.273Z,24.64
2022-08-18T07:31:34.385Z,24.77
2022-08-18T07:34:07.394Z,24.93
2022-08-18T07:36:39.801Z,25.19
2022-08-18T07:39:15.681Z,25.29
2022-08-18T07:41:52.478Z,25.39
2022-08-18T07:44:27.706Z,25.37
2022-08-18T07:46:59.815Z,25.50
2022-08-18T07:49:32.228Z,25.52
2022-08-18T07:52:06.208Z,25.59
2022-08-18T07:54:50.521Z,25.73
2022-08-18T07:57:31.935Z,25.84
2022-08-18T08:00:10.438Z,25.96
2022-08-18T08:02:59.092Z,26.03
2022-08-18T08:05:40.789Z,26.07
2022-08-18T08:08:21.353Z,26.16
2022-08-18T08:11:04.898Z,26.23
2022-08-18T08:13:55.293Z,26.22
2022-08-18T08:16:27.996Z,26.27
2022-08-18T08:19:12.514Z,26.44
2022-08-18T08:21:52.803Z,26.52
2022-08-18T08:24:27.882Z,26.51
2022-08-18T08:27:05.297Z,26.41
2022-08-18T08:29:46.609Z,26.49
2022-08-18T08:32:22.104Z,26.52
2022-08-18T08:34:52.534Z,26.66
2022-08-18T08:37:27.924Z,26.79
2022-08-18T08:40:00.666Z,26.74
2022-08-18T08:42:40.545Z,26.76
2022-08-18T08:45:15.447Z,26.73
2022-08-18T08:47:52.580Z,26.69
2022-08-18T08:50:24.688Z,26.73
2022-08-18T08:52:59.723Z,26.72
2022-08-18T08:55:31.312Z,26.78
2022-08-18T08:58:11.240Z,26.88
2022-08-18T09:00:42.525Z,26.97
2022-08-18T09:03:30.192Z,27.06
2022-08-18T09:06:09.550Z,27.12
2022-08-18T09:09:01.988Z,27.36
2022-08-18T09:12:02.847Z,27.40
2022-08-18T09:14:53.528Z,27.37
2022-08-18T09:17:48.117Z,27.59
2022-08-18T09:20:49.427Z,27.45
2022-08-18T09:23:21.522Z,27.37
2022-08-18T09:25:51.802Z,27.13
2022-08-18T09:28:22.188Z,26.81
2022-08-18T09:31:15.215Z,26.54
2022-08-18T09:34:14.759Z,26.21
2022-08-18T09:37:01.067Z,25.81
2022-08-18T09:39:34.116Z,25.57
2022-08-18T09:42:08.287Z,25.24
2022-08-18T09:45:09.972Z,25.01
2022-08-18T09:48:01.770Z,24.87
2022-08-18T09:50:39.134Z,24.71
2022-08-18T09:53:33.928Z,24.54
2022-08-18T09:58:55.589Z,24.62
2022-08-18T10:01:39.852Z,24.77
2022-08-18T10:04:35.037Z,25.15
2022-08-18T10:07:43.642Z,25.51
2022-08-18T10:11:01.449Z,25.46
2022-08-18T10:13:24.854Z,25.34
2022-08-18T10:16:15.925Z,25.58
2022-08-18T10:19:06.158Z,25.95
2022-08-18T10:22:03.202Z,26.26
2022-08-18T10:24:38.012Z,26.48
2022-08-18T10:27:13.257Z,26.58
2022-08-18T10:29:53.042Z,26.81
2022-08-18T10:32:40.354Z,26.97
2022-08-18T10:35:46.771Z,27.13
2022-08-18T10:38:23.702Z,27.37
2022-08-18T10:41:00.104Z,27.55
2022-08-18T10:43:55.172Z,27.57
2022-08-18T10:46:36.951Z,27.67
2022-08-18T10:49:19.534Z,27.78
2022-08-18T10:52:20.804Z,28.03
2022-08-18T10:55:20.161Z,28.09
2022-08-18T10:58:28.093Z,28.13
2022-08-18T11:01:07.509Z,27.83
2022-08-18T11:03:56.277Z,27.62
2022-08-18T11:06:25.044Z,27.30
2022-08-18T11:11:53.277Z,27.65
2022-08-18T11:14:52.360Z,27.84
2022-08-18T11:17:29.744Z,28.03
2022-08-18T11:20:00.378Z,28.09
2022-08-18T11:22:34.438Z,28.29
2022-08-18T11:25:18.161Z,28.42
2022-08-18T11:56:27.081Z,25.84
2022-08-18T11:59:00.707Z,25.50
2022-08-18T12:01:41.534Z,25.10
2022-08-18T12:04:16.483Z,24.84
2022-08-18T12:06:58.176Z,24.42
2022-08-18T12:12:28.423Z,23.63
2022-08-18T12:15:13.936Z,23.51
2022-08-18T12:17:52.535Z,23.34
2022-08-18T12:20:22.701Z,23.31
2022-08-18T12:22:51.277Z,23.32
2022-08-18T12:28:11.077Z,23.66
2022-08-18T12:33:34.327Z,24.08
2022-08-18T12:36:04.044Z,24.10
2022-08-18T12:38:36.455Z,24.18
2022-08-18T12:41:04.112Z,24.19
2022-08-18T12:43:34.084Z,24.13
2022-08-18T12:46:01.863Z,24.30
2022-08-18T12:48:30.978Z,24.51
2022-08-18T12:50:59.800Z,24.63
2022-08-18T12:53:30.171Z,24.73
2022-08-18T12:56:08.639Z,24.83
2022-08-18T12:58:40.563Z,25.01
2022-08-18T13:01:08.419Z,25.13
2022-08-18T13:03:36.985Z,25.26
2022-08-18T13:06:05.204Z,25.22
2022-08-18T13:08:47.867Z,25.09
2022-08-18T13:11:21.397Z,25.15
2022-08-18T13:13:56.024Z,25.06
2022-08-18T14:06:56.079Z,21.95
2022-08-18T14:09:36.451Z,21.91
2022-08-18T14:12:21.547Z,21.99
2022-08-18T14:14:52.587Z,21.95
2022-08-18T14:17:22.312Z,22.02
2022-08-18T14:19:50.680Z,22.05
2022-08-18T14:22:19.986Z,22.14
2022-08-18T14:24:49.095Z,22.16
2022-08-18T14:27:17.851Z,22.16
2022-08-18T14:29:47.786Z,22.19
2022-08-18T14:32:28.631Z,22.23
2022-08-18T14:35:00.268Z,22.26
2022-08-18T14:37:31.759Z,22.27
2022-08-18T14:40:02.053Z,22.31
2022-08-18T14:42:40.917Z,22.34
2022-08-18T14:45:26.467Z,22.32
2022-08-18T14:47:59.869Z,22.41
2022-08-18T14:50:27.717Z,22.41
2022-08-18T14:52:58.006Z,22.42
2022-08-18T14:55:26.822Z,22.46
2022-08-18T14:57:54.771Z,22.46
2022-08-18T15:00:27.162Z,22.48
2022-08-18T15:02:55.963Z,22.50
2022-08-18T15:05:24.412Z,22.55
2022-08-18T15:07:53.314Z,22.57
2022-08-18T15:10:23.733Z,22.61
2022-08-18T15:12:56.211Z,22.62
2022-08-18T15:15:25.447Z,22.64
2022-08-18T15:17:53.546Z,22.69
2022-08-18T15:20:23.926Z,22.71
2022-08-18T15:23:00.322Z,22.78
2022-08-18T15:25:29.887Z,22.81
2022-08-18T15:27:58.153Z,22.79
2022-08-18T15:30:26.526Z,22.79
2022-08-18T15:32:54.631Z,22.75
2022-08-18T15:35:22.568Z,22.73
2022-08-18T15:37:51.318Z,22.74
2022-08-18T15:40:30.770Z,22.73
2022-08-18T15:43:10.091Z,22.77
2022-08-18T15:45:42.940Z,22.82
2022-08-18T15:48:21.141Z,22.80
2022-08-18T15:50:50.978Z,22.83
2022-08-18T15:53:21.172Z,22.84
2022-08-18T15:55:50.246Z,22.82
2022-08-18T15:58:22.542Z,22.82
2022-08-18T16:00:54.561Z,22.79
2022-08-18T16:03:22.307Z,22.78
2022-08-18T16:05:53.238Z,22.73
2022-08-18T16:08:22.994Z,22.71
2022-08-18T16:10:51.684Z,22.67
2022-08-18T16:13:22.709Z,22.64
2022-08-18T16:15:50.764Z,22.59
2022-08-18T16:18:19.675Z,22.55
2022-08-18T16:20:47.543Z,22.53
2022-08-18T16:23:15.437Z,22.48
2022-08-18T16:25:43.888Z,22.46
2022-08-18T16:28:11.792Z,22.45
2022-08-18T16:30:41.476Z,22.46
2022-08-18T16:33:09.319Z,22.42
2022-08-18T16:35:37.606Z,22.38
2022-08-18T16:38:06.520Z,22.32
2022-08-18T16:40:34.539Z,22.26
2022-08-18T16:43:02.245Z,22.23
2022-08-18T16:45:30.525Z,22.18
2022-08-18T16:47:59.647Z,22.16
2022-08-18T16:50:28.104Z,22.12
2022-08-18T16:52:57.352Z,22.08
2022-08-18T16:55:25.170Z,22.05
2022-08-18T16:57:55.558Z,22.05
2022-08-18T17:00:24.550Z,22.03
2022-08-18T17:02:52.270Z,22.04
2022-08-18T17:05:21.619Z,22.01
2022-08-18T17:07:49.469Z,21.94
2022-08-18T17:10:22.931Z,21.89
2022-08-18T17:12:54.968Z,21.90
2022-08-18T17:15:23.404Z,21.89
2022-08-18T17:17:51.224Z,21.84
2022-08-18T17:20:19.340Z,21.83
2022-08-18T17:22:48.663Z,21.79
2022-08-18T17:25:23.500Z,21.76
2022-08-18T17:27:52.012Z,21.71
2022-08-18T17:30:21.981Z,21.62
2022-08-18T17:32:54.463Z,21.55
2022-08-18T17:35:29.017Z,21.52
2022-08-18T17:38:03.435Z,21.45
2022-08-18T17:40:36.860Z,21.42
2022-08-18T17:43:09.220Z,21.38
2022-08-18T17:45:37.311Z,21.32
2022-08-18T17:48:11.251Z,21.25
2022-08-18T17:50:42.088Z,21.25
2022-08-18T17:53:12.389Z,21.22
2022-08-18T17:55:45.612Z,21.19
2022-08-18T17:58:21.142Z,21.19
2022-08-18T18:00:48.898Z,21.17
2022-08-18T18:03:16.568Z,21.15
2022-08-18T18:05:50.379Z,21.13
2022-08-18T18:08:19.468Z,21.11
2022-08-18T18:11:04.839Z,21.11
2022-08-18T18:13:33.936Z,21.08
2022-08-18T18:16:18.829Z,21.05
2022-08-18T18:18:53.377Z,21.01
2022-08-18T18:21:53.596Z,20.91
2022-08-18T18:24:16.732Z,20.87
2022-08-18T18:26:52.098Z,20.77
2022-08-18T18:29:22.906Z,20.74
2022-08-18T18:32:02.736Z,20.68
2022-08-18T18:34:34.454Z,20.65
2022-08-18T18:37:02.813Z,20.64
2022-08-18T18:39:34.943Z,20.63
2022-08-18T18:42:17.163Z,20.59
2022-08-18T18:44:53.558Z,20.57
2022-08-18T18:47:49.403Z,20.51
2022-08-18T18:50:27.761Z,20.47
2022-08-18T18:53:04.279Z,20.42
2022-08-18T18:55:40.988Z,20.45
2022-08-18T18:58:18.894Z,20.44
2022-08-18T19:00:53.583Z,20.43
2022-08-18T19:03:31.445Z,20.40
2022-08-18T19:06:13.309Z,20.34
2022-08-18T19:08:51.606Z,20.35
2022-08-18T19:11:28.570Z,20.32
2022-08-18T19:14:02.093Z,20.34
2022-08-18T19:16:36.096Z,20.35
2022-08-18T19:19:37.599Z,20.38
2022-08-18T19:22:08.035Z,20.37
2022-08-18T19:24:43.444Z,20.38
2022-08-18T19:27:24.569Z,20.38
2022-08-18T19:29:57.031Z,20.38
2022-08-18T19:32:32.441Z,20.41
2022-08-18T19:35:01.200Z,20.39
2022-08-18T19:37:57.660Z,20.45
2022-08-18T19:40:32.082Z,20.42
2022-08-18T19:43:06.482Z,20.45
2022-08-18T19:45:41.131Z,20.48
2022-08-18T19:48:18.227Z,20.47
2022-08-18T19:50:51.578Z,20.48
2022-08-18T19:53:57.652Z,20.52
2022-08-18T19:56:42.388Z,20.51
2022-08-18T19:59:27.186Z,20.51
2022-08-18T20:02:23.031Z,20.50
2022-08-18T20:05:01.559Z,20.48
2022-08-18T20:08:09.495Z,20.47
2022-08-18T20:11:07.737Z,20.46
2022-08-18T20:13:42.547Z,20.41
2022-08-18T20:16:28.918Z,20.37
2022-08-18T20:19:39.401Z,20.43
2022-08-18T20:22:10.569Z,20.42
2022-08-18T20:24:49.656Z,20.41
2022-08-18T20:27:32.871Z,20.38
2022-08-18T20:30:31.128Z,20.38
2022-08-18T20:33:29.577Z,20.35
2022-08-18T20:36:11.454Z,20.26
2022-08-18T20:38:42.232Z,20.30
2022-08-18T20:41:41.307Z,20.24
2022-08-18T20:44:39.659Z,20.17
2022-08-18T20:47:24.032Z,20.15
2022-08-18T20:50:12.616Z,20.12
2022-08-18T20:52:47.513Z,20.06
2022-08-18T20:55:23.579Z,20.05
2022-08-18T20:57:55.580Z,20.03
2022-08-18T21:00:27.408Z,20.07
2022-08-18T21:02:56.781Z,20.09
2022-08-18T21:05:28.644Z,20.07
2022-08-18T21:08:04.673Z,20.06
2022-08-18T21:10:34.085Z,19.90
2022-08-18T21:13:05.239Z,19.82
2022-08-18T21:15:36.240Z,19.69
2022-08-18T21:18:05.429Z,19.76
2022-08-18T21:20:35.307Z,19.73
2022-08-18T21:23:05.951Z,19.79
2022-08-18T21:25:35.930Z,19.89
2022-08-18T21:28:06.439Z,19.91
2022-08-18T21:30:35.088Z,19.89
2022-08-18T21:33:18.290Z,19.89
2022-08-18T21:35:47.621Z,19.93
2022-08-18T21:38:15.257Z,19.89
2022-08-18T21:40:46.292Z,19.91
2022-08-18T21:43:34.007Z,19.85
2022-08-18T21:46:02.722Z,19.88
2022-08-18T21:48:30.882Z,19.87
2022-08-18T21:51:00.616Z,19.86
2022-08-18T21:53:31.449Z,19.81
2022-08-18T21:56:00.030Z,19.81
2022-08-18T21:58:37.308Z,19.80
2022-08-18T22:01:16.851Z,19.80
2022-08-18T22:03:53.291Z,19.80
2022-08-18T22:06:29.388Z,19.79
2022-08-18T22:08:59.585Z,19.79
2022-08-18T22:11:57.698Z,19.76
2022-08-18T22:14:29.020Z,19.76
2022-08-18T22:17:25.693Z,19.72
2022-08-18T22:19:54.039Z,19.67
2022-08-18T22:22:23.689Z,19.69
2022-08-18T22:24:55.480Z,19.63
2022-08-18T22:27:25.995Z,19.51
2022-08-18T22:29:56.066Z,19.54
2022-08-18T22:32:23.758Z,19.51
2022-08-18T22:34:51.354Z,19.44
2022-08-18T22:37:23.549Z,19.42
2022-08-18T22:39:53.777Z,19.40
2022-08-18T22:42:25.232Z,19.39
2022-08-18T22:44:53.362Z,19.40
2022-08-18T22:47:21.041Z,19.40
2022-08-18T22:49:48.680Z,19.37
2022-08-18T22:52:22.651Z,19.39
2022-08-18T22:55:00.571Z,19.39
2022-08-18T22:57:30.470Z,19.40
2022-08-18T23:00:00.752Z,19.40
2022-08-18T23:02:28.393Z,19.37
2022-08-18T23:04:56.070Z,19.29
2022-08-18T23:07:23.784Z,19.27
2022-08-18T23:09:51.399Z,19.20
2022-08-18T23:12:20.605Z,19.23
2022-08-18T23:14:48.525Z,19.18
2022-08-18T23:17:18.276Z,19.11
2022-08-18T23:19:45.875Z,19.16
2022-08-18T23:22:15.525Z,19.08
2022-08-18T23:24:43.691Z,19.02
2022-08-18T23:27:11.369Z,19.03
2022-08-18T23:29:40.871Z,18.99
2022-08-18T23:32:08.546Z,19.06
2022-08-18T23:34:36.338Z,19.12
2022-08-18T23:37:04.884Z,19.10
2022-08-18T23:39:33.554Z,19.15
2022-08-18T23:42:02.888Z,19.13
2022-08-18T23:44:30.898Z,19.08
2022-08-18T23:47:00.308Z,19.07
2022-08-18T23:49:29.606Z,19.08
2022-08-18T23:51:59.014Z,19.06
2022-08-18T23:54:28.912Z,19.09
2022-08-18T23:56:56.992Z,19.08
2022-08-18T23:59:26.014Z,19.06
